sensor_id;sensor_type;location;lat;lon;timestamp;temperature;humidity
55785;DHT22;41709;52.536;5.688;2023-12-20T00:02:22;7.80;92.00
55785;DHT22;41709;52.536;5.688;2023-12-20T00:04:48;7.80;92.00
55785;DHT22;41709;52.536;5.688;2023-12-20T00:07:14;7.80;91.90
55785;DHT22;41709;52.536;5.688;2023-12-20T00:09:39;7.70;92.00
55785;DHT22;41709;52.536;5.688;2023-12-20T00:12:05;7.70;92.00
55785;DHT22;41709;52.536;5.688;2023-12-20T00:14:30;7.70;92.00
55785;DHT22;41709;52.536;5.688;2023-12-20T00:16:56;7.70;92.00
55785;DHT22;41709;52.536;5.688;2023-12-20T00:19:21;7.70;92.00
55785;DHT22;41709;52.536;5.688;2023-12-20T00:21:46;7.70;91.90
55785;DHT22;41709;52.536;5.688;2023-12-20T00:24:12;7.60;91.90
55785;DHT22;41709;52.536;5.688;2023-12-20T00:26:37;7.50;92.40
55785;DHT22;41709;52.536;5.688;2023-12-20T00:29:03;7.50;92.00
55785;DHT22;41709;52.536;5.688;2023-12-20T00:31:28;7.50;92.00
55785;DHT22;41709;52.536;5.688;2023-12-20T00:33:54;7.50;92.00
55785;DHT22;41709;52.536;5.688;2023-12-20T00:36:20;7.40;92.10
55785;DHT22;41709;52.536;5.688;2023-12-20T00:38:45;7.40;92.10
55785;DHT22;41709;52.536;5.688;2023-12-20T00:41:10;7.40;92.10
55785;DHT22;41709;52.536;5.688;2023-12-20T00:43:36;7.40;92.10
55785;DHT22;41709;52.536;5.688;2023-12-20T00:46:01;7.40;92.20
55785;DHT22;41709;52.536;5.688;2023-12-20T00:48:27;7.30;92.30
55785;DHT22;41709;52.536;5.688;2023-12-20T00:50:53;7.30;92.30
55785;DHT22;41709;52.536;5.688;2023-12-20T00:53:19;7.40;92.30
55785;DHT22;41709;52.536;5.688;2023-12-20T00:55:44;7.30;92.40
55785;DHT22;41709;52.536;5.688;2023-12-20T00:58:10;7.30;92.50
55785;DHT22;41709;52.536;5.688;2023-12-20T01:00:36;7.30;92.30
55785;DHT22;41709;52.536;5.688;2023-12-20T01:03:01;7.30;92.30
55785;DHT22;41709;52.536;5.688;2023-12-20T01:05:26;7.30;92.20
55785;DHT22;41709;52.536;5.688;2023-12-20T01:07:52;7.30;92.10
55785;DHT22;41709;52.536;5.688;2023-12-20T01:10:17;7.30;92.30
55785;DHT22;41709;52.536;5.688;2023-12-20T01:12:43;7.30;92.30
55785;DHT22;41709;52.536;5.688;2023-12-20T01:15:09;7.30;92.30
55785;DHT22;41709;52.536;5.688;2023-12-20T01:17:34;7.30;92.20
55785;DHT22;41709;52.536;5.688;2023-12-20T01:20:02;7.40;92.30
55785;DHT22;41709;52.536;5.688;2023-12-20T01:22:28;7.30;92.30
55785;DHT22;41709;52.536;5.688;2023-12-20T01:24:53;7.40;92.40
55785;DHT22;41709;52.536;5.688;2023-12-20T01:27:19;7.30;92.60
55785;DHT22;41709;52.536;5.688;2023-12-20T01:29:44;7.30;92.60
55785;DHT22;41709;52.536;5.688;2023-12-20T01:32:10;7.40;92.60
55785;DHT22;41709;52.536;5.688;2023-12-20T01:34:35;7.40;92.60
55785;DHT22;41709;52.536;5.688;2023-12-20T01:37:01;7.40;92.60
55785;DHT22;41709;52.536;5.688;2023-12-20T01:39:27;7.40;92.60
55785;DHT22;41709;52.536;5.688;2023-12-20T01:41:53;7.40;92.60
55785;DHT22;41709;52.536;5.688;2023-12-20T01:44:18;7.40;92.60
55785;DHT22;41709;52.536;5.688;2023-12-20T01:46:44;7.40;92.60
55785;DHT22;41709;52.536;5.688;2023-12-20T01:49:10;7.50;92.60
55785;DHT22;41709;52.536;5.688;2023-12-20T01:51:35;7.50;92.60
55785;DHT22;41709;52.536;5.688;2023-12-20T01:54:01;7.50;92.60
55785;DHT22;41709;52.536;5.688;2023-12-20T01:56:26;7.50;92.60
55785;DHT22;41709;52.536;5.688;2023-12-20T01:58:54;7.50;92.70
55785;DHT22;41709;52.536;5.688;2023-12-20T02:01:19;7.50;92.80
55785;DHT22;41709;52.536;5.688;2023-12-20T02:03:45;7.40;92.80
55785;DHT22;41709;52.536;5.688;2023-12-20T02:06:11;7.40;92.90
55785;DHT22;41709;52.536;5.688;2023-12-20T02:08:36;7.50;92.90
55785;DHT22;41709;52.536;5.688;2023-12-20T02:11:02;7.40;92.80
55785;DHT22;41709;52.536;5.688;2023-12-20T02:13:27;7.40;92.90
55785;DHT22;41709;52.536;5.688;2023-12-20T02:15:54;7.40;92.90
55785;DHT22;41709;52.536;5.688;2023-12-20T02:18:19;7.50;93.00
55785;DHT22;41709;52.536;5.688;2023-12-20T02:20:45;7.50;93.00
55785;DHT22;41709;52.536;5.688;2023-12-20T02:23:10;7.40;93.00
55785;DHT22;41709;52.536;5.688;2023-12-20T02:25:36;7.50;92.90
55785;DHT22;41709;52.536;5.688;2023-12-20T02:28:02;7.60;92.80
55785;DHT22;41709;52.536;5.688;2023-12-20T02:30:28;7.60;92.80
55785;DHT22;41709;52.536;5.688;2023-12-20T02:32:54;7.50;92.90
55785;DHT22;41709;52.536;5.688;2023-12-20T02:35:19;7.50;92.90
55785;DHT22;41709;52.536;5.688;2023-12-20T02:37:45;7.60;92.90
55785;DHT22;41709;52.536;5.688;2023-12-20T02:40:10;7.60;92.90
55785;DHT22;41709;52.536;5.688;2023-12-20T02:42:36;7.50;93.00
55785;DHT22;41709;52.536;5.688;2023-12-20T02:45:02;7.50;92.90
55785;DHT22;41709;52.536;5.688;2023-12-20T02:47:27;7.60;92.90
55785;DHT22;41709;52.536;5.688;2023-12-20T02:49:55;7.60;92.90
55785;DHT22;41709;52.536;5.688;2023-12-20T02:52:20;7.60;92.90
55785;DHT22;41709;52.536;5.688;2023-12-20T02:54:46;7.60;92.90
55785;DHT22;41709;52.536;5.688;2023-12-20T02:57:11;7.60;92.90
55785;DHT22;41709;52.536;5.688;2023-12-20T02:59:37;7.70;92.80
55785;DHT22;41709;52.536;5.688;2023-12-20T03:02:02;7.70;92.50
55785;DHT22;41709;52.536;5.688;2023-12-20T03:04:28;7.70;92.60
55785;DHT22;41709;52.536;5.688;2023-12-20T03:06:53;7.70;92.70
55785;DHT22;41709;52.536;5.688;2023-12-20T03:09:19;7.70;92.60
55785;DHT22;41709;52.536;5.688;2023-12-20T03:11:44;7.70;92.60
55785;DHT22;41709;52.536;5.688;2023-12-20T03:14:10;7.80;92.60
55785;DHT22;41709;52.536;5.688;2023-12-20T03:16:35;7.80;92.50
55785;DHT22;41709;52.536;5.688;2023-12-20T03:19:00;7.70;92.60
55785;DHT22;41709;52.536;5.688;2023-12-20T03:21:26;7.70;92.50
55785;DHT22;41709;52.536;5.688;2023-12-20T03:23:51;7.80;92.50
55785;DHT22;41709;52.536;5.688;2023-12-20T03:26:17;7.70;92.40
55785;DHT22;41709;52.536;5.688;2023-12-20T03:28:42;7.80;92.40
55785;DHT22;41709;52.536;5.688;2023-12-20T03:31:09;7.80;92.30
55785;DHT22;41709;52.536;5.688;2023-12-20T03:33:34;7.80;92.20
55785;DHT22;41709;52.536;5.688;2023-12-20T03:36:00;7.80;92.10
55785;DHT22;41709;52.536;5.688;2023-12-20T03:38:25;7.80;92.00
55785;DHT22;41709;52.536;5.688;2023-12-20T03:40:51;7.80;92.00
55785;DHT22;41709;52.536;5.688;2023-12-20T03:43:16;7.80;91.90
55785;DHT22;41709;52.536;5.688;2023-12-20T03:45:42;7.80;91.90
55785;DHT22;41709;52.536;5.688;2023-12-20T03:48:08;7.80;91.80
55785;DHT22;41709;52.536;5.688;2023-12-20T03:50:34;7.70;91.80
55785;DHT22;41709;52.536;5.688;2023-12-20T03:52:59;7.70;91.90
55785;DHT22;41709;52.536;5.688;2023-12-20T03:55:25;7.80;91.80
55785;DHT22;41709;52.536;5.688;2023-12-20T03:57:50;7.60;92.00
55785;DHT22;41709;52.536;5.688;2023-12-20T04:00:16;7.70;92.10
55785;DHT22;41709;52.536;5.688;2023-12-20T04:02:42;7.70;92.00
55785;DHT22;41709;52.536;5.688;2023-12-20T04:05:08;7.70;91.90
55785;DHT22;41709;52.536;5.688;2023-12-20T04:07:33;7.70;91.90
55785;DHT22;41709;52.536;5.688;2023-12-20T04:09:59;7.70;91.90
55785;DHT22;41709;52.536;5.688;2023-12-20T04:12:27;7.60;92.00
55785;DHT22;41709;52.536;5.688;2023-12-20T04:14:52;7.60;91.90
55785;DHT22;41709;52.536;5.688;2023-12-20T04:17:18;7.60;91.80
55785;DHT22;41709;52.536;5.688;2023-12-20T04:19:43;7.70;91.80
55785;DHT22;41709;52.536;5.688;2023-12-20T04:22:09;7.70;92.10
55785;DHT22;41709;52.536;5.688;2023-12-20T04:24:34;7.80;91.80
55785;DHT22;41709;52.536;5.688;2023-12-20T04:27:02;7.80;91.70
55785;DHT22;41709;52.536;5.688;2023-12-20T04:29:27;7.80;91.70
55785;DHT22;41709;52.536;5.688;2023-12-20T04:31:53;7.70;91.80
55785;DHT22;41709;52.536;5.688;2023-12-20T04:34:19;7.70;91.90
55785;DHT22;41709;52.536;5.688;2023-12-20T04:36:44;7.70;91.90
55785;DHT22;41709;52.536;5.688;2023-12-20T04:39:11;7.70;91.90
55785;DHT22;41709;52.536;5.688;2023-12-20T04:41:36;7.70;91.90
55785;DHT22;41709;52.536;5.688;2023-12-20T04:44:02;7.70;92.00
55785;DHT22;41709;52.536;5.688;2023-12-20T04:46:27;7.70;92.10
55785;DHT22;41709;52.536;5.688;2023-12-20T04:48:53;7.80;92.10
55785;DHT22;41709;52.536;5.688;2023-12-20T04:51:18;7.80;92.00
55785;DHT22;41709;52.536;5.688;2023-12-20T04:53:44;7.80;92.00
55785;DHT22;41709;52.536;5.688;2023-12-20T04:56:09;7.80;92.10
55785;DHT22;41709;52.536;5.688;2023-12-20T04:58:35;7.80;92.00
55785;DHT22;41709;52.536;5.688;2023-12-20T05:01:00;7.80;91.90
55785;DHT22;41709;52.536;5.688;2023-12-20T05:03:26;7.90;92.00
55785;DHT22;41709;52.536;5.688;2023-12-20T05:05:51;7.90;92.10
55785;DHT22;41709;52.536;5.688;2023-12-20T05:08:17;7.80;92.10
55785;DHT22;41709;52.536;5.688;2023-12-20T05:10:42;7.80;92.00
55785;DHT22;41709;52.536;5.688;2023-12-20T05:13:07;7.90;91.90
55785;DHT22;41709;52.536;5.688;2023-12-20T05:15:33;7.90;91.90
55785;DHT22;41709;52.536;5.688;2023-12-20T05:17:58;7.90;91.80
55785;DHT22;41709;52.536;5.688;2023-12-20T05:20:24;8.00;91.70
55785;DHT22;41709;52.536;5.688;2023-12-20T05:22:49;7.90;91.70
55785;DHT22;41709;52.536;5.688;2023-12-20T05:25:15;7.90;91.80
55785;DHT22;41709;52.536;5.688;2023-12-20T05:27:41;7.90;91.80
55785;DHT22;41709;52.536;5.688;2023-12-20T05:30:06;8.00;91.70
55785;DHT22;41709;52.536;5.688;2023-12-20T05:32:32;8.00;91.80
55785;DHT22;41709;52.536;5.688;2023-12-20T05:34:57;7.90;91.90
55785;DHT22;41709;52.536;5.688;2023-12-20T05:37:23;7.90;91.90
55785;DHT22;41709;52.536;5.688;2023-12-20T05:39:48;7.90;92.00
55785;DHT22;41709;52.536;5.688;2023-12-20T05:42:14;7.90;91.90
55785;DHT22;41709;52.536;5.688;2023-12-20T05:44:39;7.90;91.80
55785;DHT22;41709;52.536;5.688;2023-12-20T05:47:04;7.80;92.10
55785;DHT22;41709;52.536;5.688;2023-12-20T05:49:30;7.90;92.00
55785;DHT22;41709;52.536;5.688;2023-12-20T05:51:56;7.90;91.90
55785;DHT22;41709;52.536;5.688;2023-12-20T05:54:22;7.90;91.80
55785;DHT22;41709;52.536;5.688;2023-12-20T05:56:48;8.00;91.80
55785;DHT22;41709;52.536;5.688;2023-12-20T05:59:13;8.00;91.70
55785;DHT22;41709;52.536;5.688;2023-12-20T06:01:39;8.00;91.70
55785;DHT22;41709;52.536;5.688;2023-12-20T06:04:04;8.00;91.70
55785;DHT22;41709;52.536;5.688;2023-12-20T06:06:30;8.00;91.60
55785;DHT22;41709;52.536;5.688;2023-12-20T06:08:55;8.00;92.00
55785;DHT22;41709;52.536;5.688;2023-12-20T06:11:21;8.00;91.70
55785;DHT22;41709;52.536;5.688;2023-12-20T06:13:46;8.00;91.70
55785;DHT22;41709;52.536;5.688;2023-12-20T06:16:12;8.00;91.70
55785;DHT22;41709;52.536;5.688;2023-12-20T06:18:38;8.00;91.70
55785;DHT22;41709;52.536;5.688;2023-12-20T06:21:03;8.10;91.70
55785;DHT22;41709;52.536;5.688;2023-12-20T06:23:29;8.10;91.70
55785;DHT22;41709;52.536;5.688;2023-12-20T06:25:55;8.10;91.60
55785;DHT22;41709;52.536;5.688;2023-12-20T06:28:20;8.10;91.60
55785;DHT22;41709;52.536;5.688;2023-12-20T06:30:45;8.10;91.70
55785;DHT22;41709;52.536;5.688;2023-12-20T06:33:14;8.20;91.70
55785;DHT22;41709;52.536;5.688;2023-12-20T06:35:39;8.20;91.70
55785;DHT22;41709;52.536;5.688;2023-12-20T06:38:05;8.20;91.70
55785;DHT22;41709;52.536;5.688;2023-12-20T06:40:31;8.20;91.60
55785;DHT22;41709;52.536;5.688;2023-12-20T06:42:56;8.20;91.70
55785;DHT22;41709;52.536;5.688;2023-12-20T06:45:21;8.20;91.70
55785;DHT22;41709;52.536;5.688;2023-12-20T06:47:47;8.20;91.70
55785;DHT22;41709;52.536;5.688;2023-12-20T06:50:12;8.20;91.60
55785;DHT22;41709;52.536;5.688;2023-12-20T06:52:38;8.30;91.60
55785;DHT22;41709;52.536;5.688;2023-12-20T06:55:03;8.20;91.80
55785;DHT22;41709;52.536;5.688;2023-12-20T06:57:29;8.20;91.70
55785;DHT22;41709;52.536;5.688;2023-12-20T06:59:55;8.10;91.80
55785;DHT22;41709;52.536;5.688;2023-12-20T07:02:21;8.10;91.90
55785;DHT22;41709;52.536;5.688;2023-12-20T07:04:47;8.10;91.90
55785;DHT22;41709;52.536;5.688;2023-12-20T07:07:13;8.10;91.80
55785;DHT22;41709;52.536;5.688;2023-12-20T07:09:38;8.20;91.90
55785;DHT22;41709;52.536;5.688;2023-12-20T07:12:06;8.20;91.80
55785;DHT22;41709;52.536;5.688;2023-12-20T07:14:31;8.20;91.80
55785;DHT22;41709;52.536;5.688;2023-12-20T07:16:57;8.30;91.80
55785;DHT22;41709;52.536;5.688;2023-12-20T07:19:22;8.10;91.90
55785;DHT22;41709;52.536;5.688;2023-12-20T07:21:48;8.10;91.90
55785;DHT22;41709;52.536;5.688;2023-12-20T07:24:13;8.20;92.00
55785;DHT22;41709;52.536;5.688;2023-12-20T07:26:39;8.20;91.90
55785;DHT22;41709;52.536;5.688;2023-12-20T07:29:05;8.20;91.90
55785;DHT22;41709;52.536;5.688;2023-12-20T07:31:32;8.30;91.90
55785;DHT22;41709;52.536;5.688;2023-12-20T07:33:57;8.30;91.90
55785;DHT22;41709;52.536;5.688;2023-12-20T07:36:23;8.30;91.80
55785;DHT22;41709;52.536;5.688;2023-12-20T07:38:48;8.30;91.70
55785;DHT22;41709;52.536;5.688;2023-12-20T07:41:14;8.40;91.70
55785;DHT22;41709;52.536;5.688;2023-12-20T07:43:41;8.30;91.70
55785;DHT22;41709;52.536;5.688;2023-12-20T07:46:07;8.30;91.60
55785;DHT22;41709;52.536;5.688;2023-12-20T07:48:33;8.40;91.60
55785;DHT22;41709;52.536;5.688;2023-12-20T07:50:59;8.40;91.50
55785;DHT22;41709;52.536;5.688;2023-12-20T07:53:25;8.50;91.40
55785;DHT22;41709;52.536;5.688;2023-12-20T07:55:50;8.40;91.40
55785;DHT22;41709;52.536;5.688;2023-12-20T07:58:17;8.40;91.40
55785;DHT22;41709;52.536;5.688;2023-12-20T08:00:43;8.40;91.30
55785;DHT22;41709;52.536;5.688;2023-12-20T08:03:09;8.50;91.30
55785;DHT22;41709;52.536;5.688;2023-12-20T08:05:34;8.50;91.30
55785;DHT22;41709;52.536;5.688;2023-12-20T08:08:00;8.50;91.20
55785;DHT22;41709;52.536;5.688;2023-12-20T08:10:25;8.50;91.30
55785;DHT22;41709;52.536;5.688;2023-12-20T08:12:51;8.50;91.40
55785;DHT22;41709;52.536;5.688;2023-12-20T08:15:16;8.50;91.40
55785;DHT22;41709;52.536;5.688;2023-12-20T08:17:42;8.40;91.60
55785;DHT22;41709;52.536;5.688;2023-12-20T08:20:07;8.30;91.60
55785;DHT22;41709;52.536;5.688;2023-12-20T08:22:33;8.30;91.60
55785;DHT22;41709;52.536;5.688;2023-12-20T08:24:58;8.40;91.60
55785;DHT22;41709;52.536;5.688;2023-12-20T08:27:24;8.40;91.50
55785;DHT22;41709;52.536;5.688;2023-12-20T08:29:51;8.50;91.40
55785;DHT22;41709;52.536;5.688;2023-12-20T08:32:16;8.50;91.40
55785;DHT22;41709;52.536;5.688;2023-12-20T08:34:42;8.50;91.50
55785;DHT22;41709;52.536;5.688;2023-12-20T08:37:07;8.50;91.40
55785;DHT22;41709;52.536;5.688;2023-12-20T08:39:32;8.50;91.50
55785;DHT22;41709;52.536;5.688;2023-12-20T08:41:59;8.50;91.50
55785;DHT22;41709;52.536;5.688;2023-12-20T08:44:24;8.50;91.40
55785;DHT22;41709;52.536;5.688;2023-12-20T08:46:50;8.50;91.40
55785;DHT22;41709;52.536;5.688;2023-12-20T08:49:15;8.50;91.40
55785;DHT22;41709;52.536;5.688;2023-12-20T08:51:41;8.50;91.40
55785;DHT22;41709;52.536;5.688;2023-12-20T08:54:07;8.60;91.30
55785;DHT22;41709;52.536;5.688;2023-12-20T08:56:35;8.70;91.30
55785;DHT22;41709;52.536;5.688;2023-12-20T08:59:01;8.60;91.30
55785;DHT22;41709;52.536;5.688;2023-12-20T09:01:26;8.60;91.30
55785;DHT22;41709;52.536;5.688;2023-12-20T09:03:52;8.60;91.30
55785;DHT22;41709;52.536;5.688;2023-12-20T09:06:17;8.70;91.30
55785;DHT22;41709;52.536;5.688;2023-12-20T09:08:43;8.70;91.30
55785;DHT22;41709;52.536;5.688;2023-12-20T09:11:08;8.70;91.30
55785;DHT22;41709;52.536;5.688;2023-12-20T09:13:34;8.70;91.30
55785;DHT22;41709;52.536;5.688;2023-12-20T09:15:59;8.70;91.20
55785;DHT22;41709;52.536;5.688;2023-12-20T09:18:25;8.70;91.40
55785;DHT22;41709;52.536;5.688;2023-12-20T09:20:50;8.70;91.30
55785;DHT22;41709;52.536;5.688;2023-12-20T09:23:16;8.80;91.30
55785;DHT22;41709;52.536;5.688;2023-12-20T09:25:42;8.70;91.30
55785;DHT22;41709;52.536;5.688;2023-12-20T09:28:07;8.70;91.30
55785;DHT22;41709;52.536;5.688;2023-12-20T09:30:33;8.80;91.20
55785;DHT22;41709;52.536;5.688;2023-12-20T09:32:58;8.80;91.20
55785;DHT22;41709;52.536;5.688;2023-12-20T09:35:24;8.80;91.20
55785;DHT22;41709;52.536;5.688;2023-12-20T09:37:49;8.80;91.20
55785;DHT22;41709;52.536;5.688;2023-12-20T09:40:16;8.80;91.20
55785;DHT22;41709;52.536;5.688;2023-12-20T09:42:56;8.80;91.20
55785;DHT22;41709;52.536;5.688;2023-12-20T09:45:22;8.70;91.30
55785;DHT22;41709;52.536;5.688;2023-12-20T09:47:48;8.70;91.40
55785;DHT22;41709;52.536;5.688;2023-12-20T09:50:15;8.70;91.30
55785;DHT22;41709;52.536;5.688;2023-12-20T09:52:41;8.70;91.40
55785;DHT22;41709;52.536;5.688;2023-12-20T09:55:09;8.70;91.50
55785;DHT22;41709;52.536;5.688;2023-12-20T09:57:35;8.80;91.50
55785;DHT22;41709;52.536;5.688;2023-12-20T10:00:00;8.80;91.50
55785;DHT22;41709;52.536;5.688;2023-12-20T10:02:26;8.90;91.50
55785;DHT22;41709;52.536;5.688;2023-12-20T10:04:52;8.90;91.60
55785;DHT22;41709;52.536;5.688;2023-12-20T10:07:18;9.00;91.50
55785;DHT22;41709;52.536;5.688;2023-12-20T10:09:44;9.00;91.50
55785;DHT22;41709;52.536;5.688;2023-12-20T10:12:09;9.00;91.50
55785;DHT22;41709;52.536;5.688;2023-12-20T10:14:34;9.00;91.40
55785;DHT22;41709;52.536;5.688;2023-12-20T10:17:03;9.10;91.30
55785;DHT22;41709;52.536;5.688;2023-12-20T10:19:29;9.10;91.30
55785;DHT22;41709;52.536;5.688;2023-12-20T10:21:54;9.00;91.40
55785;DHT22;41709;52.536;5.688;2023-12-20T10:24:20;9.00;91.50
55785;DHT22;41709;52.536;5.688;2023-12-20T10:26:46;9.10;91.40
55785;DHT22;41709;52.536;5.688;2023-12-20T10:29:11;9.00;91.50
55785;DHT22;41709;52.536;5.688;2023-12-20T10:31:37;9.00;91.40
55785;DHT22;41709;52.536;5.688;2023-12-20T10:34:04;9.10;91.40
55785;DHT22;41709;52.536;5.688;2023-12-20T10:36:30;9.10;91.40
55785;DHT22;41709;52.536;5.688;2023-12-20T10:38:56;9.20;91.30
55785;DHT22;41709;52.536;5.688;2023-12-20T10:41:28;9.20;91.30
55785;DHT22;41709;52.536;5.688;2023-12-20T10:44:00;9.10;91.30
55785;DHT22;41709;52.536;5.688;2023-12-20T10:46:27;9.20;91.30
55785;DHT22;41709;52.536;5.688;2023-12-20T10:48:54;9.20;91.30
55785;DHT22;41709;52.536;5.688;2023-12-20T10:51:20;9.20;91.30
55785;DHT22;41709;52.536;5.688;2023-12-20T10:53:47;9.20;91.20
55785;DHT22;41709;52.536;5.688;2023-12-20T10:56:13;9.20;91.30
55785;DHT22;41709;52.536;5.688;2023-12-20T10:58:41;9.20;91.30
55785;DHT22;41709;52.536;5.688;2023-12-20T11:01:07;9.20;91.30
55785;DHT22;41709;52.536;5.688;2023-12-20T11:03:34;9.20;91.20
55785;DHT22;41709;52.536;5.688;2023-12-20T11:11:07;9.20;91.40
55785;DHT22;41709;52.536;5.688;2023-12-20T11:13:40;9.20;91.40
55785;DHT22;41709;52.536;5.688;2023-12-20T11:16:09;8.90;91.20
55785;DHT22;41709;52.536;5.688;2023-12-20T11:18:35;9.30;91.30
55785;DHT22;41709;52.536;5.688;2023-12-20T11:21:01;9.20;91.40
55785;DHT22;41709;52.536;5.688;2023-12-20T11:23:29;9.20;91.40
55785;DHT22;41709;52.536;5.688;2023-12-20T11:25:56;9.20;91.60
55785;DHT22;41709;52.536;5.688;2023-12-20T11:28:24;9.20;91.60
55785;DHT22;41709;52.536;5.688;2023-12-20T11:30:50;9.20;91.60
55785;DHT22;41709;52.536;5.688;2023-12-20T11:33:17;9.20;91.60
55785;DHT22;41709;52.536;5.688;2023-12-20T11:35:46;9.10;91.70
55785;DHT22;41709;52.536;5.688;2023-12-20T11:38:13;8.90;91.90
55785;DHT22;41709;52.536;5.688;2023-12-20T11:40:40;8.90;91.90
55785;DHT22;41709;52.536;5.688;2023-12-20T11:43:06;8.70;92.00
55785;DHT22;41709;52.536;5.688;2023-12-20T11:45:31;8.70;92.30
55785;DHT22;41709;52.536;5.688;2023-12-20T11:47:57;8.70;91.70
55785;DHT22;41709;52.536;5.688;2023-12-20T11:50:23;8.80;91.60
55785;DHT22;41709;52.536;5.688;2023-12-20T11:52:49;8.70;91.40
55785;DHT22;41709;52.536;5.688;2023-12-20T11:55:15;8.70;91.50
55785;DHT22;41709;52.536;5.688;2023-12-20T11:57:41;8.70;91.40
55785;DHT22;41709;52.536;5.688;2023-12-20T12:00:07;8.60;91.30
55785;DHT22;41709;52.536;5.688;2023-12-20T12:02:33;8.60;91.40
55785;DHT22;41709;52.536;5.688;2023-12-20T12:05:01;8.50;91.60
55785;DHT22;41709;52.536;5.688;2023-12-20T12:07:27;8.50;91.70
55785;DHT22;41709;52.536;5.688;2023-12-20T12:09:52;8.50;91.70
55785;DHT22;41709;52.536;5.688;2023-12-20T12:12:18;8.60;91.60
55785;DHT22;41709;52.536;5.688;2023-12-20T12:14:44;8.50;91.80
55785;DHT22;41709;52.536;5.688;2023-12-20T12:17:13;8.60;91.70
55785;DHT22;41709;52.536;5.688;2023-12-20T12:19:42;8.70;91.60
55785;DHT22;41709;52.536;5.688;2023-12-20T12:22:08;8.70;91.60
55785;DHT22;41709;52.536;5.688;2023-12-20T12:27:07;8.80;91.80
55785;DHT22;41709;52.536;5.688;2023-12-20T12:29:33;8.80;92.00
55785;DHT22;41709;52.536;5.688;2023-12-20T12:31:59;8.90;92.10
55785;DHT22;41709;52.536;5.688;2023-12-20T12:34:26;8.90;92.00
55785;DHT22;41709;52.536;5.688;2023-12-20T12:36:52;9.00;92.00
55785;DHT22;41709;52.536;5.688;2023-12-20T12:39:17;9.00;92.00
55785;DHT22;41709;52.536;5.688;2023-12-20T12:41:43;9.00;91.90
55785;DHT22;41709;52.536;5.688;2023-12-20T12:44:08;9.00;91.80
55785;DHT22;41709;52.536;5.688;2023-12-20T12:46:34;9.00;91.90
55785;DHT22;41709;52.536;5.688;2023-12-20T12:48:59;9.00;91.90
55785;DHT22;41709;52.536;5.688;2023-12-20T12:51:25;9.00;91.90
55785;DHT22;41709;52.536;5.688;2023-12-20T12:53:51;9.00;91.90
55785;DHT22;41709;52.536;5.688;2023-12-20T12:56:16;9.00;91.90
55785;DHT22;41709;52.536;5.688;2023-12-20T12:58:42;9.00;91.80
55785;DHT22;41709;52.536;5.688;2023-12-20T13:01:07;9.00;91.90
55785;DHT22;41709;52.536;5.688;2023-12-20T13:03:33;9.00;92.00
55785;DHT22;41709;52.536;5.688;2023-12-20T13:05:59;8.90;92.20
55785;DHT22;41709;52.536;5.688;2023-12-20T13:08:25;8.90;92.20
55785;DHT22;41709;52.536;5.688;2023-12-20T13:10:50;9.00;92.10
55785;DHT22;41709;52.536;5.688;2023-12-20T13:13:16;9.00;92.10
55785;DHT22;41709;52.536;5.688;2023-12-20T13:15:42;9.00;92.20
55785;DHT22;41709;52.536;5.688;2023-12-20T13:18:07;9.10;92.10
55785;DHT22;41709;52.536;5.688;2023-12-20T13:20:33;9.10;92.00
55785;DHT22;41709;52.536;5.688;2023-12-20T13:22:59;9.00;92.10
55785;DHT22;41709;52.536;5.688;2023-12-20T13:25:24;9.10;92.00
55785;DHT22;41709;52.536;5.688;2023-12-20T13:27:50;9.20;92.00
55785;DHT22;41709;52.536;5.688;2023-12-20T13:30:16;9.20;91.90
55785;DHT22;41709;52.536;5.688;2023-12-20T13:32:41;9.20;92.00
55785;DHT22;41709;52.536;5.688;2023-12-20T13:35:07;9.20;91.90
55785;DHT22;41709;52.536;5.688;2023-12-20T13:37:32;9.10;91.80
55785;DHT22;41709;52.536;5.688;2023-12-20T13:39:58;9.10;92.00
55785;DHT22;41709;52.536;5.688;2023-12-20T13:42:23;9.20;91.80
55785;DHT22;41709;52.536;5.688;2023-12-20T13:44:49;9.00;91.80
55785;DHT22;41709;52.536;5.688;2023-12-20T13:47:14;9.00;91.70
55785;DHT22;41709;52.536;5.688;2023-12-20T13:49:40;8.90;91.80
55785;DHT22;41709;52.536;5.688;2023-12-20T13:52:05;8.90;91.80
55785;DHT22;41709;52.536;5.688;2023-12-20T13:54:30;9.00;91.70
55785;DHT22;41709;52.536;5.688;2023-12-20T13:56:56;9.10;91.70
55785;DHT22;41709;52.536;5.688;2023-12-20T13:59:23;9.10;91.40
55785;DHT22;41709;52.536;5.688;2023-12-20T14:01:48;9.10;91.40
55785;DHT22;41709;52.536;5.688;2023-12-20T14:04:15;9.10;91.40
55785;DHT22;41709;52.536;5.688;2023-12-20T14:06:41;9.10;91.40
55785;DHT22;41709;52.536;5.688;2023-12-20T14:09:06;9.10;91.70
55785;DHT22;41709;52.536;5.688;2023-12-20T14:11:32;9.00;91.50
55785;DHT22;41709;52.536;5.688;2023-12-20T14:13:57;9.00;91.50
55785;DHT22;41709;52.536;5.688;2023-12-20T14:16:23;9.00;91.60
55785;DHT22;41709;52.536;5.688;2023-12-20T14:18:49;9.00;91.60
55785;DHT22;41709;52.536;5.688;2023-12-20T14:21:14;9.00;91.60
55785;DHT22;41709;52.536;5.688;2023-12-20T14:23:40;9.10;91.60
55785;DHT22;41709;52.536;5.688;2023-12-20T14:26:05;9.10;91.60
55785;DHT22;41709;52.536;5.688;2023-12-20T14:28:31;9.10;91.60
55785;DHT22;41709;52.536;5.688;2023-12-20T14:30:56;9.10;91.40
55785;DHT22;41709;52.536;5.688;2023-12-20T14:33:22;9.20;91.50
55785;DHT22;41709;52.536;5.688;2023-12-20T14:35:47;9.20;91.40
55785;DHT22;41709;52.536;5.688;2023-12-20T14:38:13;9.20;91.40
55785;DHT22;41709;52.536;5.688;2023-12-20T14:40:40;9.30;91.30
55785;DHT22;41709;52.536;5.688;2023-12-20T14:43:06;9.30;91.30
55785;DHT22;41709;52.536;5.688;2023-12-20T14:45:31;9.20;91.30
55785;DHT22;41709;52.536;5.688;2023-12-20T14:47:57;9.20;91.30
55785;DHT22;41709;52.536;5.688;2023-12-20T14:50:24;9.30;91.30
55785;DHT22;41709;52.536;5.688;2023-12-20T14:52:49;9.30;91.30
55785;DHT22;41709;52.536;5.688;2023-12-20T14:55:15;9.30;91.40
55785;DHT22;41709;52.536;5.688;2023-12-20T14:57:40;9.20;91.30
55785;DHT22;41709;52.536;5.688;2023-12-20T15:00:06;9.20;91.30
55785;DHT22;41709;52.536;5.688;2023-12-20T15:02:32;9.30;91.30
55785;DHT22;41709;52.536;5.688;2023-12-20T15:04:58;9.10;91.40
55785;DHT22;41709;52.536;5.688;2023-12-20T15:07:23;9.20;91.40
55785;DHT22;41709;52.536;5.688;2023-12-20T15:09:49;9.20;91.40
55785;DHT22;41709;52.536;5.688;2023-12-20T15:12:14;9.20;91.50
55785;DHT22;41709;52.536;5.688;2023-12-20T15:14:40;9.20;91.40
55785;DHT22;41709;52.536;5.688;2023-12-20T15:17:05;9.10;91.60
55785;DHT22;41709;52.536;5.688;2023-12-20T15:19:31;9.10;91.70
55785;DHT22;41709;52.536;5.688;2023-12-20T15:21:57;9.10;91.70
55785;DHT22;41709;52.536;5.688;2023-12-20T15:24:24;9.20;91.70
55785;DHT22;41709;52.536;5.688;2023-12-20T15:26:54;9.10;91.80
55785;DHT22;41709;52.536;5.688;2023-12-20T15:29:19;9.20;91.80
55785;DHT22;41709;52.536;5.688;2023-12-20T15:31:46;9.10;91.90
55785;DHT22;41709;52.536;5.688;2023-12-20T15:34:11;9.10;91.90
55785;DHT22;41709;52.536;5.688;2023-12-20T15:36:38;9.20;92.00
55785;DHT22;41709;52.536;5.688;2023-12-20T15:39:04;9.10;92.00
55785;DHT22;41709;52.536;5.688;2023-12-20T15:41:29;9.10;92.00
55785;DHT22;41709;52.536;5.688;2023-12-20T15:43:55;9.10;92.00